MDE weather

Jose Maria Córdova International Airport
Medellín, Antioquía Department, Colombia

Public forecast

Using degrees Celsius for public forecast. Weather courtesy of forecast.io.

METAR (pilot weather report)

Retrieved 2019/03/23 16:00 UTC (40 minutes ago):

SKRG 231600Z 09003KT 9999 BKN012 SCT080 19/14 A3039

TAF (pilot weather forecast)

Forecast is more than 12 hours old.

Retrieved 2019/03/22 06:12 UTC (1 day ago):

TAF SKRG 220500Z 2206/2306 VRB02KT 9999 SCT015 BKN080 TEMPO 2206/2210 6000 DZ BKN009 BECMG 2214/2216 11008KT TEMPO 2219/2222 5000 TSRA SCT008CB BECMG 2300/2302 VRB02KT TEMPO 2302/2306 7000 DZ BKN010 TX23/2219Z TN13/2211Z